sensor_id;sensor_type;location;lat;lon;timestamp;P1;durP1;ratioP1;P2;durP2;ratioP2
57828;SDS011;43657;52.698;6.314;2022-11-15T00:02:03;30.00;;;24.73;;
57828;SDS011;43657;52.698;6.314;2022-11-15T00:04:43;28.15;;;24.33;;
57828;SDS011;43657;52.698;6.314;2022-11-15T00:07:09;30.92;;;24.70;;
57828;SDS011;43657;52.698;6.314;2022-11-15T00:09:37;30.13;;;24.58;;
57828;SDS011;43657;52.698;6.314;2022-11-15T00:14:38;30.98;;;24.35;;
57828;SDS011;43657;52.698;6.314;2022-11-15T00:19:42;29.52;;;25.25;;
57828;SDS011;43657;52.698;6.314;2022-11-15T00:22:13;30.65;;;25.02;;
57828;SDS011;43657;52.698;6.314;2022-11-15T00:25:01;29.40;;;23.65;;
57828;SDS011;43657;52.698;6.314;2022-11-15T00:27:30;29.77;;;23.83;;
57828;SDS011;43657;52.698;6.314;2022-11-15T00:30:01;28.58;;;24.33;;
57828;SDS011;43657;52.698;6.314;2022-11-15T00:32:30;29.48;;;24.50;;
57828;SDS011;43657;52.698;6.314;2022-11-15T00:35:02;29.73;;;25.10;;
57828;SDS011;43657;52.698;6.314;2022-11-15T00:37:49;28.27;;;23.75;;
57828;SDS011;43657;52.698;6.314;2022-11-15T00:40:22;29.33;;;24.10;;
57828;SDS011;43657;52.698;6.314;2022-11-15T00:42:48;30.33;;;24.83;;
57828;SDS011;43657;52.698;6.314;2022-11-15T00:45:16;29.17;;;23.80;;
57828;SDS011;43657;52.698;6.314;2022-11-15T00:50:20;29.52;;;23.63;;
57828;SDS011;43657;52.698;6.314;2022-11-15T00:52:49;28.02;;;23.85;;
57828;SDS011;43657;52.698;6.314;2022-11-15T00:55:19;29.63;;;24.27;;
57828;SDS011;43657;52.698;6.314;2022-11-15T00:57:54;30.98;;;24.50;;
57828;SDS011;43657;52.698;6.314;2022-11-15T01:00:25;29.00;;;23.52;;
57828;SDS011;43657;52.698;6.314;2022-11-15T01:02:54;29.58;;;23.75;;
57828;SDS011;43657;52.698;6.314;2022-11-15T01:05:22;31.30;;;25.08;;
57828;SDS011;43657;52.698;6.314;2022-11-15T01:07:52;30.42;;;23.85;;
57828;SDS011;43657;52.698;6.314;2022-11-15T01:10:19;31.48;;;24.48;;
57828;SDS011;43657;52.698;6.314;2022-11-15T01:12:48;32.80;;;24.13;;
57828;SDS011;43657;52.698;6.314;2022-11-15T01:15:14;28.73;;;23.65;;
57828;SDS011;43657;52.698;6.314;2022-11-15T01:17:49;30.42;;;23.73;;
57828;SDS011;43657;52.698;6.314;2022-11-15T01:20:24;31.17;;;23.38;;
57828;SDS011;43657;52.698;6.314;2022-11-15T01:22:53;30.27;;;23.60;;
57828;SDS011;43657;52.698;6.314;2022-11-15T01:25:31;29.42;;;23.50;;
57828;SDS011;43657;52.698;6.314;2022-11-15T01:28:07;32.83;;;24.25;;
57828;SDS011;43657;52.698;6.314;2022-11-15T01:30:41;29.13;;;23.55;;
57828;SDS011;43657;52.698;6.314;2022-11-15T01:33:09;31.42;;;23.88;;
57828;SDS011;43657;52.698;6.314;2022-11-15T01:35:47;28.83;;;22.73;;
57828;SDS011;43657;52.698;6.314;2022-11-15T01:38:24;31.50;;;23.63;;
57828;SDS011;43657;52.698;6.314;2022-11-15T01:40:52;32.65;;;24.45;;
57828;SDS011;43657;52.698;6.314;2022-11-15T01:43:25;28.92;;;23.13;;
57828;SDS011;43657;52.698;6.314;2022-11-15T01:46:04;32.20;;;23.77;;
57828;SDS011;43657;52.698;6.314;2022-11-15T01:48:58;31.75;;;24.02;;
57828;SDS011;43657;52.698;6.314;2022-11-15T01:51:27;33.72;;;24.23;;
57828;SDS011;43657;52.698;6.314;2022-11-15T01:54:07;35.55;;;24.40;;
57828;SDS011;43657;52.698;6.314;2022-11-15T01:56:38;32.05;;;23.52;;
57828;SDS011;43657;52.698;6.314;2022-11-15T01:59:40;35.25;;;24.58;;
57828;SDS011;43657;52.698;6.314;2022-11-15T02:02:16;36.47;;;24.35;;
57828;SDS011;43657;52.698;6.314;2022-11-15T02:04:54;36.63;;;24.77;;
57828;SDS011;43657;52.698;6.314;2022-11-15T02:07:25;35.90;;;25.00;;
57828;SDS011;43657;52.698;6.314;2022-11-15T02:09:56;37.47;;;25.33;;
57828;SDS011;43657;52.698;6.314;2022-11-15T02:12:29;36.70;;;24.65;;
57828;SDS011;43657;52.698;6.314;2022-11-15T02:15:07;38.83;;;24.63;;
57828;SDS011;43657;52.698;6.314;2022-11-15T02:31:04;42.65;;;26.88;;
57828;SDS011;43657;52.698;6.314;2022-11-15T02:33:40;37.85;;;24.90;;
57828;SDS011;43657;52.698;6.314;2022-11-15T02:36:15;36.55;;;23.92;;
57828;SDS011;43657;52.698;6.314;2022-11-15T02:38:54;43.85;;;27.33;;
57828;SDS011;43657;52.698;6.314;2022-11-15T02:52:14;41.50;;;26.45;;
57828;SDS011;43657;52.698;6.314;2022-11-15T02:54:58;42.20;;;25.88;;
57828;SDS011;43657;52.698;6.314;2022-11-15T02:57:37;48.40;;;27.63;;
57828;SDS011;43657;52.698;6.314;2022-11-15T03:00:16;45.80;;;27.60;;
57828;SDS011;43657;52.698;6.314;2022-11-15T03:07:58;46.17;;;28.98;;
57828;SDS011;43657;52.698;6.314;2022-11-15T03:18:36;67.00;;;31.35;;
57828;SDS011;43657;52.698;6.314;2022-11-15T03:21:08;60.10;;;31.85;;
57828;SDS011;43657;52.698;6.314;2022-11-15T03:23:36;61.10;;;32.20;;
57828;SDS011;43657;52.698;6.314;2022-11-15T03:26:05;71.75;;;32.53;;
57828;SDS011;43657;52.698;6.314;2022-11-15T03:28:36;61.28;;;32.10;;
57828;SDS011;43657;52.698;6.314;2022-11-15T03:31:08;65.55;;;34.05;;
57828;SDS011;43657;52.698;6.314;2022-11-15T03:33:55;67.93;;;34.13;;
57828;SDS011;43657;52.698;6.314;2022-11-15T03:36:23;78.07;;;34.13;;
57828;SDS011;43657;52.698;6.314;2022-11-15T03:38:52;66.72;;;35.15;;
57828;SDS011;43657;52.698;6.314;2022-11-15T03:41:23;78.95;;;37.08;;
57828;SDS011;43657;52.698;6.314;2022-11-15T03:43:58;79.25;;;35.47;;
57828;SDS011;43657;52.698;6.314;2022-11-15T03:46:33;72.38;;;35.38;;
57828;SDS011;43657;52.698;6.314;2022-11-15T03:49:25;85.20;;;37.85;;
57828;SDS011;43657;52.698;6.314;2022-11-15T03:51:59;94.15;;;38.08;;
57828;SDS011;43657;52.698;6.314;2022-11-15T03:54:27;89.32;;;38.33;;
57828;SDS011;43657;52.698;6.314;2022-11-15T03:56:53;88.60;;;40.05;;
57828;SDS011;43657;52.698;6.314;2022-11-15T03:59:19;107.38;;;42.95;;
57828;SDS011;43657;52.698;6.314;2022-11-15T04:01:44;103.70;;;41.63;;
57828;SDS011;43657;52.698;6.314;2022-11-15T04:04:10;95.47;;;41.78;;
57828;SDS011;43657;52.698;6.314;2022-11-15T04:06:35;95.57;;;41.70;;
57828;SDS011;43657;52.698;6.314;2022-11-15T04:09:01;92.47;;;39.97;;
57828;SDS011;43657;52.698;6.314;2022-11-15T04:11:27;98.50;;;40.42;;
57828;SDS011;43657;52.698;6.314;2022-11-15T04:13:53;91.13;;;42.33;;
57828;SDS011;43657;52.698;6.314;2022-11-15T04:16:18;89.28;;;41.05;;
57828;SDS011;43657;52.698;6.314;2022-11-15T04:18:44;101.32;;;41.92;;
57828;SDS011;43657;52.698;6.314;2022-11-15T04:21:09;102.97;;;43.60;;
57828;SDS011;43657;52.698;6.314;2022-11-15T04:23:53;105.40;;;43.42;;
57828;SDS011;43657;52.698;6.314;2022-11-15T04:26:37;103.88;;;43.72;;
57828;SDS011;43657;52.698;6.314;2022-11-15T04:29:03;94.07;;;44.45;;
57828;SDS011;43657;52.698;6.314;2022-11-15T04:31:47;100.78;;;44.88;;
57828;SDS011;43657;52.698;6.314;2022-11-15T04:34:12;116.72;;;45.60;;
57828;SDS011;43657;52.698;6.314;2022-11-15T04:36:38;99.50;;;43.20;;
57828;SDS011;43657;52.698;6.314;2022-11-15T04:39:22;83.57;;;41.97;;
57828;SDS011;43657;52.698;6.314;2022-11-15T04:41:47;91.72;;;43.55;;
57828;SDS011;43657;52.698;6.314;2022-11-15T04:44:13;91.85;;;43.22;;
57828;SDS011;43657;52.698;6.314;2022-11-15T04:46:39;92.18;;;43.83;;
57828;SDS011;43657;52.698;6.314;2022-11-15T04:49:04;84.22;;;42.50;;
57828;SDS011;43657;52.698;6.314;2022-11-15T04:51:30;103.13;;;44.75;;
57828;SDS011;43657;52.698;6.314;2022-11-15T04:53:55;106.03;;;45.08;;
57828;SDS011;43657;52.698;6.314;2022-11-15T04:56:21;94.07;;;45.08;;
57828;SDS011;43657;52.698;6.314;2022-11-15T04:58:49;84.03;;;42.58;;
57828;SDS011;43657;52.698;6.314;2022-11-15T05:01:15;83.97;;;43.47;;
57828;SDS011;43657;52.698;6.314;2022-11-15T05:03:42;88.82;;;42.95;;
57828;SDS011;43657;52.698;6.314;2022-11-15T05:06:27;83.82;;;43.20;;
57828;SDS011;43657;52.698;6.314;2022-11-15T05:08:53;92.20;;;44.60;;
57828;SDS011;43657;52.698;6.314;2022-11-15T05:11:19;69.43;;;40.08;;
57828;SDS011;43657;52.698;6.314;2022-11-15T05:13:45;69.32;;;40.63;;
57828;SDS011;43657;52.698;6.314;2022-11-15T05:16:11;79.45;;;40.85;;
57828;SDS011;43657;52.698;6.314;2022-11-15T05:18:37;70.75;;;38.88;;
57828;SDS011;43657;52.698;6.314;2022-11-15T05:21:09;72.68;;;41.17;;
57828;SDS011;43657;52.698;6.314;2022-11-15T05:23:37;84.72;;;42.63;;
57828;SDS011;43657;52.698;6.314;2022-11-15T05:26:04;73.88;;;39.90;;
57828;SDS011;43657;52.698;6.314;2022-11-15T05:28:30;75.20;;;41.25;;
57828;SDS011;43657;52.698;6.314;2022-11-15T05:31:03;77.55;;;40.88;;
57828;SDS011;43657;52.698;6.314;2022-11-15T05:33:31;73.05;;;39.08;;
57828;SDS011;43657;52.698;6.314;2022-11-15T05:36:00;71.53;;;39.60;;
57828;SDS011;43657;52.698;6.314;2022-11-15T05:38:48;91.35;;;42.38;;
57828;SDS011;43657;52.698;6.314;2022-11-15T05:41:15;72.72;;;39.05;;
57828;SDS011;43657;52.698;6.314;2022-11-15T05:43:43;85.55;;;42.17;;
57828;SDS011;43657;52.698;6.314;2022-11-15T05:46:09;78.85;;;41.08;;
57828;SDS011;43657;52.698;6.314;2022-11-15T05:48:36;89.80;;;41.38;;
57828;SDS011;43657;52.698;6.314;2022-11-15T05:51:05;78.00;;;39.47;;
57828;SDS011;43657;52.698;6.314;2022-11-15T05:53:32;73.15;;;38.22;;
57828;SDS011;43657;52.698;6.314;2022-11-15T06:55:57;59.85;;;34.05;;
57828;SDS011;43657;52.698;6.314;2022-11-15T06:59:23;63.15;;;34.38;;
57828;SDS011;43657;52.698;6.314;2022-11-15T07:01:57;50.53;;;33.80;;
57828;SDS011;43657;52.698;6.314;2022-11-15T07:08:59;54.72;;;33.88;;
57828;SDS011;43657;52.698;6.314;2022-11-15T07:11:36;51.50;;;33.47;;
57828;SDS011;43657;52.698;6.314;2022-11-15T07:14:57;62.50;;;33.88;;
57828;SDS011;43657;52.698;6.314;2022-11-15T07:17:33;50.63;;;32.60;;
57828;SDS011;43657;52.698;6.314;2022-11-15T07:24:45;50.70;;;32.42;;
57828;SDS011;43657;52.698;6.314;2022-11-15T07:45:54;50.30;;;32.75;;
57828;SDS011;43657;52.698;6.314;2022-11-15T07:59:26;56.08;;;33.28;;
57828;SDS011;43657;52.698;6.314;2022-11-15T08:05:14;58.78;;;32.75;;
57828;SDS011;43657;52.698;6.314;2022-11-15T08:11:25;49.80;;;30.70;;
57828;SDS011;43657;52.698;6.314;2022-11-15T08:14:51;48.42;;;31.48;;
57828;SDS011;43657;52.698;6.314;2022-11-15T08:21:06;53.15;;;31.38;;
57828;SDS011;43657;52.698;6.314;2022-11-15T08:27:25;53.30;;;32.13;;
57828;SDS011;43657;52.698;6.314;2022-11-15T08:30:36;49.95;;;31.30;;
57828;SDS011;43657;52.698;6.314;2022-11-15T08:33:20;45.92;;;31.00;;
57828;SDS011;43657;52.698;6.314;2022-11-15T08:36:30;50.17;;;31.13;;
57828;SDS011;43657;52.698;6.314;2022-11-15T08:39:02;56.90;;;32.20;;
57828;SDS011;43657;52.698;6.314;2022-11-15T08:41:53;42.70;;;29.55;;
57828;SDS011;43657;52.698;6.314;2022-11-15T08:44:22;49.78;;;30.83;;
57828;SDS011;43657;52.698;6.314;2022-11-15T08:46:49;51.17;;;31.90;;
57828;SDS011;43657;52.698;6.314;2022-11-15T08:49:18;46.53;;;30.80;;
57828;SDS011;43657;52.698;6.314;2022-11-15T08:51:54;52.42;;;30.90;;
57828;SDS011;43657;52.698;6.314;2022-11-15T08:54:23;48.55;;;30.75;;
57828;SDS011;43657;52.698;6.314;2022-11-15T09:00:42;48.50;;;31.08;;
57828;SDS011;43657;52.698;6.314;2022-11-15T09:03:16;42.53;;;29.27;;
57828;SDS011;43657;52.698;6.314;2022-11-15T09:05:42;37.83;;;27.73;;
57828;SDS011;43657;52.698;6.314;2022-11-15T09:08:07;44.70;;;27.83;;
57828;SDS011;43657;52.698;6.314;2022-11-15T09:10:33;41.63;;;28.08;;
57828;SDS011;43657;52.698;6.314;2022-11-15T09:12:59;37.90;;;27.23;;
57828;SDS011;43657;52.698;6.314;2022-11-15T09:15:24;42.92;;;27.48;;
57828;SDS011;43657;52.698;6.314;2022-11-15T09:17:50;33.20;;;26.55;;
57828;SDS011;43657;52.698;6.314;2022-11-15T09:20:18;38.10;;;26.58;;
57828;SDS011;43657;52.698;6.314;2022-11-15T09:22:44;39.08;;;27.95;;
57828;SDS011;43657;52.698;6.314;2022-11-15T09:25:09;32.40;;;25.55;;
57828;SDS011;43657;52.698;6.314;2022-11-15T09:27:35;36.70;;;26.75;;
57828;SDS011;43657;52.698;6.314;2022-11-15T09:30:00;36.22;;;25.75;;
57828;SDS011;43657;52.698;6.314;2022-11-15T09:32:29;34.35;;;25.63;;
57828;SDS011;43657;52.698;6.314;2022-11-15T09:34:55;31.92;;;23.60;;
57828;SDS011;43657;52.698;6.314;2022-11-15T09:37:21;32.40;;;24.52;;
57828;SDS011;43657;52.698;6.314;2022-11-15T09:39:46;33.92;;;24.60;;
57828;SDS011;43657;52.698;6.314;2022-11-15T09:45:31;33.20;;;23.05;;
57828;SDS011;43657;52.698;6.314;2022-11-15T09:50:49;29.02;;;21.35;;
57828;SDS011;43657;52.698;6.314;2022-11-15T10:02:10;22.95;;;17.50;;
57828;SDS011;43657;52.698;6.314;2022-11-15T10:04:43;19.15;;;16.50;;
57828;SDS011;43657;52.698;6.314;2022-11-15T10:07:14;20.38;;;16.67;;
57828;SDS011;43657;52.698;6.314;2022-11-15T10:09:47;22.67;;;17.13;;
57828;SDS011;43657;52.698;6.314;2022-11-15T10:14:50;20.05;;;16.15;;
57828;SDS011;43657;52.698;6.314;2022-11-15T10:20:12;20.35;;;17.17;;
57828;SDS011;43657;52.698;6.314;2022-11-15T10:22:51;19.42;;;15.98;;
57828;SDS011;43657;52.698;6.314;2022-11-15T10:27:59;21.17;;;16.52;;
57828;SDS011;43657;52.698;6.314;2022-11-15T10:30:42;18.52;;;16.00;;
57828;SDS011;43657;52.698;6.314;2022-11-15T10:33:29;23.98;;;16.35;;
57828;SDS011;43657;52.698;6.314;2022-11-15T10:41:22;15.95;;;12.73;;
57828;SDS011;43657;52.698;6.314;2022-11-15T10:44:08;14.00;;;12.32;;
57828;SDS011;43657;52.698;6.314;2022-11-15T10:46:41;15.10;;;12.45;;
57828;SDS011;43657;52.698;6.314;2022-11-15T10:49:15;13.70;;;10.43;;
57828;SDS011;43657;52.698;6.314;2022-11-15T10:51:47;12.05;;;10.48;;
57828;SDS011;43657;52.698;6.314;2022-11-15T10:54:17;15.20;;;9.80;;
57828;SDS011;43657;52.698;6.314;2022-11-15T10:56:58;13.93;;;10.52;;
57828;SDS011;43657;52.698;6.314;2022-11-15T10:59:27;11.55;;;10.02;;
57828;SDS011;43657;52.698;6.314;2022-11-15T11:01:58;11.55;;;9.50;;
57828;SDS011;43657;52.698;6.314;2022-11-15T11:04:24;12.32;;;9.30;;
57828;SDS011;43657;52.698;6.314;2022-11-15T11:06:51;8.27;;;7.45;;
57828;SDS011;43657;52.698;6.314;2022-11-15T11:09:23;8.82;;;7.60;;
57828;SDS011;43657;52.698;6.314;2022-11-15T11:11:54;11.35;;;7.75;;
57828;SDS011;43657;52.698;6.314;2022-11-15T11:14:24;8.88;;;7.38;;
57828;SDS011;43657;52.698;6.314;2022-11-15T11:27:57;8.57;;;6.97;;
57828;SDS011;43657;52.698;6.314;2022-11-15T11:38:34;7.53;;;5.78;;
57828;SDS011;43657;52.698;6.314;2022-11-15T11:46:56;7.28;;;5.15;;
57828;SDS011;43657;52.698;6.314;2022-11-15T11:52:13;5.95;;;4.80;;
57828;SDS011;43657;52.698;6.314;2022-11-15T11:54:46;6.95;;;4.88;;
57828;SDS011;43657;52.698;6.314;2022-11-15T11:57:38;6.90;;;4.65;;
57828;SDS011;43657;52.698;6.314;2022-11-15T12:02:50;6.45;;;4.72;;
57828;SDS011;43657;52.698;6.314;2022-11-15T12:05:29;7.65;;;4.50;;
57828;SDS011;43657;52.698;6.314;2022-11-15T12:08:50;4.97;;;3.90;;
57828;SDS011;43657;52.698;6.314;2022-11-15T12:11:02;7.50;;;4.88;;
57828;SDS011;43657;52.698;6.314;2022-11-15T12:13:31;6.70;;;4.40;;
57828;SDS011;43657;52.698;6.314;2022-11-15T12:16:12;7.32;;;4.30;;
57828;SDS011;43657;52.698;6.314;2022-11-15T12:18:50;6.18;;;4.13;;
57828;SDS011;43657;52.698;6.314;2022-11-15T12:23:54;4.97;;;4.03;;
57828;SDS011;43657;52.698;6.314;2022-11-15T12:26:26;6.38;;;4.18;;
57828;SDS011;43657;52.698;6.314;2022-11-15T12:29:01;5.90;;;4.43;;
57828;SDS011;43657;52.698;6.314;2022-11-15T12:34:05;6.60;;;3.78;;
57828;SDS011;43657;52.698;6.314;2022-11-15T12:36:41;4.85;;;3.83;;
57828;SDS011;43657;52.698;6.314;2022-11-15T12:39:09;6.28;;;3.53;;
57828;SDS011;43657;52.698;6.314;2022-11-15T12:41:37;4.28;;;3.58;;
57828;SDS011;43657;52.698;6.314;2022-11-15T12:44:12;4.57;;;4.05;;
57828;SDS011;43657;52.698;6.314;2022-11-15T13:04:50;3.67;;;2.97;;
57828;SDS011;43657;52.698;6.314;2022-11-15T13:10:00;3.08;;;2.38;;
57828;SDS011;43657;52.698;6.314;2022-11-15T13:17:53;4.45;;;2.17;;
57828;SDS011;43657;52.698;6.314;2022-11-15T13:20:26;2.22;;;1.70;;
57828;SDS011;43657;52.698;6.314;2022-11-15T13:30:40;4.20;;;2.25;;
57828;SDS011;43657;52.698;6.314;2022-11-15T13:35:52;3.13;;;1.90;;
57828;SDS011;43657;52.698;6.314;2022-11-15T13:38:33;3.25;;;1.83;;
57828;SDS011;43657;52.698;6.314;2022-11-15T13:41:10;2.25;;;1.48;;
57828;SDS011;43657;52.698;6.314;2022-11-15T13:43:47;3.80;;;1.60;;
57828;SDS011;43657;52.698;6.314;2022-11-15T13:46:19;1.75;;;1.38;;
57828;SDS011;43657;52.698;6.314;2022-11-15T13:48:56;3.45;;;1.60;;
57828;SDS011;43657;52.698;6.314;2022-11-15T13:51:37;1.65;;;1.30;;
57828;SDS011;43657;52.698;6.314;2022-11-15T13:56:33;1.70;;;1.60;;
57828;SDS011;43657;52.698;6.314;2022-11-15T13:59:00;2.42;;;1.55;;
57828;SDS011;43657;52.698;6.314;2022-11-15T14:01:32;2.72;;;1.40;;
57828;SDS011;43657;52.698;6.314;2022-11-15T14:03:59;2.40;;;1.50;;
57828;SDS011;43657;52.698;6.314;2022-11-15T14:06:27;1.92;;;1.20;;
57828;SDS011;43657;52.698;6.314;2022-11-15T14:11:58;3.50;;;1.45;;
57828;SDS011;43657;52.698;6.314;2022-11-15T14:14:31;3.88;;;1.38;;
57828;SDS011;43657;52.698;6.314;2022-11-15T14:17:32;2.22;;;1.33;;
57828;SDS011;43657;52.698;6.314;2022-11-15T14:20:00;2.10;;;1.15;;
57828;SDS011;43657;52.698;6.314;2022-11-15T14:22:27;3.78;;;1.05;;
57828;SDS011;43657;52.698;6.314;2022-11-15T14:27:39;2.30;;;1.20;;
57828;SDS011;43657;52.698;6.314;2022-11-15T14:30:12;4.28;;;1.33;;
57828;SDS011;43657;52.698;6.314;2022-11-15T14:32:48;2.50;;;1.33;;
57828;SDS011;43657;52.698;6.314;2022-11-15T14:35:22;3.03;;;1.67;;
57828;SDS011;43657;52.698;6.314;2022-11-15T14:37:48;3.25;;;1.70;;
57828;SDS011;43657;52.698;6.314;2022-11-15T14:40:15;3.33;;;1.80;;
57828;SDS011;43657;52.698;6.314;2022-11-15T14:42:46;4.82;;;2.10;;
57828;SDS011;43657;52.698;6.314;2022-11-15T14:45:20;5.00;;;2.03;;
57828;SDS011;43657;52.698;6.314;2022-11-15T14:47:46;5.15;;;2.35;;
57828;SDS011;43657;52.698;6.314;2022-11-15T14:50:14;3.22;;;2.65;;
57828;SDS011;43657;52.698;6.314;2022-11-15T14:52:42;6.40;;;2.80;;
57828;SDS011;43657;52.698;6.314;2022-11-15T14:55:21;5.32;;;3.15;;
57828;SDS011;43657;52.698;6.314;2022-11-15T14:57:49;4.55;;;3.00;;
57828;SDS011;43657;52.698;6.314;2022-11-15T15:00:15;3.58;;;2.90;;
57828;SDS011;43657;52.698;6.314;2022-11-15T15:02:42;3.47;;;3.00;;
57828;SDS011;43657;52.698;6.314;2022-11-15T15:05:23;4.38;;;3.67;;
57828;SDS011;43657;52.698;6.314;2022-11-15T15:07:55;4.57;;;3.83;;
57828;SDS011;43657;52.698;6.314;2022-11-15T15:10:21;4.40;;;3.53;;
57828;SDS011;43657;52.698;6.314;2022-11-15T15:12:48;5.50;;;4.18;;
57828;SDS011;43657;52.698;6.314;2022-11-15T15:15:15;5.07;;;4.43;;
57828;SDS011;43657;52.698;6.314;2022-11-15T15:17:51;5.15;;;4.15;;
57828;SDS011;43657;52.698;6.314;2022-11-15T15:20:20;5.50;;;4.57;;
57828;SDS011;43657;52.698;6.314;2022-11-15T15:22:46;7.63;;;5.30;;
57828;SDS011;43657;52.698;6.314;2022-11-15T15:27:46;6.90;;;5.88;;
57828;SDS011;43657;52.698;6.314;2022-11-15T15:30:12;7.00;;;5.57;;
57828;SDS011;43657;52.698;6.314;2022-11-15T15:32:38;6.82;;;5.60;;
57828;SDS011;43657;52.698;6.314;2022-11-15T15:35:04;5.72;;;5.07;;
57828;SDS011;43657;52.698;6.314;2022-11-15T15:37:30;6.45;;;5.82;;
57828;SDS011;43657;52.698;6.314;2022-11-15T15:39:58;5.78;;;5.18;;
57828;SDS011;43657;52.698;6.314;2022-11-15T15:42:24;6.63;;;5.30;;
57828;SDS011;43657;52.698;6.314;2022-11-15T15:44:50;5.95;;;5.00;;
57828;SDS011;43657;52.698;6.314;2022-11-15T15:47:20;5.35;;;4.63;;
57828;SDS011;43657;52.698;6.314;2022-11-15T15:49:47;7.15;;;4.70;;
57828;SDS011;43657;52.698;6.314;2022-11-15T15:52:14;6.10;;;4.70;;
57828;SDS011;43657;52.698;6.314;2022-11-15T15:54:40;5.65;;;5.05;;
57828;SDS011;43657;52.698;6.314;2022-11-15T15:57:06;6.35;;;4.50;;
57828;SDS011;43657;52.698;6.314;2022-11-15T15:59:33;5.43;;;4.60;;
57828;SDS011;43657;52.698;6.314;2022-11-15T16:01:58;6.03;;;4.50;;
57828;SDS011;43657;52.698;6.314;2022-11-15T16:04:24;6.82;;;4.63;;
57828;SDS011;43657;52.698;6.314;2022-11-15T16:06:50;5.00;;;4.30;;
57828;SDS011;43657;52.698;6.314;2022-11-15T16:09:19;9.48;;;7.05;;
57828;SDS011;43657;52.698;6.314;2022-11-15T16:12:05;6.80;;;6.20;;
57828;SDS011;43657;52.698;6.314;2022-11-15T16:14:31;8.13;;;5.30;;
57828;SDS011;43657;52.698;6.314;2022-11-15T16:16:57;6.43;;;4.75;;
57828;SDS011;43657;52.698;6.314;2022-11-15T16:19:23;4.82;;;4.22;;
57828;SDS011;43657;52.698;6.314;2022-11-15T16:21:48;5.47;;;4.38;;
57828;SDS011;43657;52.698;6.314;2022-11-15T16:24:14;5.13;;;3.67;;
57828;SDS011;43657;52.698;6.314;2022-11-15T16:26:40;6.78;;;4.10;;
57828;SDS011;43657;52.698;6.314;2022-11-15T16:29:07;5.78;;;3.80;;
57828;SDS011;43657;52.698;6.314;2022-11-15T16:31:34;5.78;;;4.03;;
57828;SDS011;43657;52.698;6.314;2022-11-15T16:34:00;4.78;;;3.63;;
57828;SDS011;43657;52.698;6.314;2022-11-15T16:36:26;7.55;;;6.85;;
57828;SDS011;43657;52.698;6.314;2022-11-15T16:38:54;6.50;;;4.18;;
57828;SDS011;43657;52.698;6.314;2022-11-15T16:41:20;6.22;;;3.70;;
57828;SDS011;43657;52.698;6.314;2022-11-15T16:43:45;4.70;;;3.60;;
57828;SDS011;43657;52.698;6.314;2022-11-15T16:46:22;4.65;;;2.92;;
57828;SDS011;43657;52.698;6.314;2022-11-15T16:48:49;5.00;;;3.42;;
57828;SDS011;43657;52.698;6.314;2022-11-15T16:51:15;3.50;;;2.83;;
57828;SDS011;43657;52.698;6.314;2022-11-15T16:53:41;3.60;;;2.80;;
57828;SDS011;43657;52.698;6.314;2022-11-15T16:58:45;6.28;;;2.60;;
57828;SDS011;43657;52.698;6.314;2022-11-15T17:01:56;5.28;;;2.90;;
57828;SDS011;43657;52.698;6.314;2022-11-15T17:04:00;8.55;;;2.72;;
57828;SDS011;43657;52.698;6.314;2022-11-15T17:06:36;3.08;;;2.35;;
57828;SDS011;43657;52.698;6.314;2022-11-15T17:09:06;3.72;;;2.40;;
57828;SDS011;43657;52.698;6.314;2022-11-15T17:11:36;4.55;;;2.80;;
57828;SDS011;43657;52.698;6.314;2022-11-15T17:14:02;11.93;;;10.82;;
57828;SDS011;43657;52.698;6.314;2022-11-15T17:16:27;10.20;;;9.30;;
57828;SDS011;43657;52.698;6.314;2022-11-15T17:18:53;15.63;;;14.35;;
57828;SDS011;43657;52.698;6.314;2022-11-15T17:21:19;8.15;;;7.53;;
57828;SDS011;43657;52.698;6.314;2022-11-15T17:23:46;5.55;;;5.05;;
57828;SDS011;43657;52.698;6.314;2022-11-15T17:26:12;7.97;;;4.70;;
57828;SDS011;43657;52.698;6.314;2022-11-15T17:28:39;4.25;;;2.97;;
57828;SDS011;43657;52.698;6.314;2022-11-15T17:31:09;5.80;;;3.67;;
57828;SDS011;43657;52.698;6.314;2022-11-15T17:33:36;3.83;;;2.45;;
57828;SDS011;43657;52.698;6.314;2022-11-15T17:36:03;4.40;;;2.30;;
57828;SDS011;43657;52.698;6.314;2022-11-15T17:38:31;2.85;;;2.13;;
57828;SDS011;43657;52.698;6.314;2022-11-15T17:43:35;3.60;;;2.05;;
57828;SDS011;43657;52.698;6.314;2022-11-15T17:46:06;3.63;;;1.92;;
57828;SDS011;43657;52.698;6.314;2022-11-15T17:48:35;2.55;;;1.83;;
57828;SDS011;43657;52.698;6.314;2022-11-15T17:51:02;2.70;;;1.70;;
57828;SDS011;43657;52.698;6.314;2022-11-15T17:53:33;4.57;;;2.30;;
57828;SDS011;43657;52.698;6.314;2022-11-15T17:56:05;4.63;;;2.60;;
57828;SDS011;43657;52.698;6.314;2022-11-15T17:58:38;6.43;;;3.70;;
57828;SDS011;43657;52.698;6.314;2022-11-15T18:03:33;8.23;;;5.88;;
57828;SDS011;43657;52.698;6.314;2022-11-15T18:06:00;7.75;;;4.05;;
57828;SDS011;43657;52.698;6.314;2022-11-15T18:08:26;6.82;;;3.83;;
57828;SDS011;43657;52.698;6.314;2022-11-15T18:11:00;3.95;;;2.80;;
57828;SDS011;43657;52.698;6.314;2022-11-15T18:13:34;7.53;;;4.65;;
57828;SDS011;43657;52.698;6.314;2022-11-15T18:16:11;5.88;;;3.72;;
57828;SDS011;43657;52.698;6.314;2022-11-15T18:18:38;5.38;;;2.53;;
57828;SDS011;43657;52.698;6.314;2022-11-15T18:21:10;5.95;;;2.90;;
57828;SDS011;43657;52.698;6.314;2022-11-15T18:23:37;5.70;;;2.50;;
57828;SDS011;43657;52.698;6.314;2022-11-15T18:26:04;5.22;;;3.40;;
57828;SDS011;43657;52.698;6.314;2022-11-15T18:28:33;4.78;;;2.70;;
57828;SDS011;43657;52.698;6.314;2022-11-15T18:31:00;3.90;;;2.50;;
57828;SDS011;43657;52.698;6.314;2022-11-15T18:33:28;5.20;;;2.28;;
57828;SDS011;43657;52.698;6.314;2022-11-15T18:36:05;6.57;;;3.42;;
57828;SDS011;43657;52.698;6.314;2022-11-15T18:38:33;7.70;;;4.40;;
57828;SDS011;43657;52.698;6.314;2022-11-15T18:41:10;4.55;;;2.67;;
57828;SDS011;43657;52.698;6.314;2022-11-15T18:43:37;7.65;;;4.88;;
57828;SDS011;43657;52.698;6.314;2022-11-15T18:46:05;6.47;;;4.53;;
57828;SDS011;43657;52.698;6.314;2022-11-15T18:48:33;7.78;;;4.45;;
57828;SDS011;43657;52.698;6.314;2022-11-15T18:54:19;5.57;;;2.75;;
57828;SDS011;43657;52.698;6.314;2022-11-15T18:57:22;5.10;;;3.70;;
57828;SDS011;43657;52.698;6.314;2022-11-15T19:00:09;5.35;;;3.20;;
57828;SDS011;43657;52.698;6.314;2022-11-15T19:02:46;8.18;;;4.70;;
57828;SDS011;43657;52.698;6.314;2022-11-15T19:05:24;6.78;;;4.70;;
57828;SDS011;43657;52.698;6.314;2022-11-15T19:11:34;5.75;;;4.03;;
57828;SDS011;43657;52.698;6.314;2022-11-15T19:14:10;5.28;;;3.20;;
57828;SDS011;43657;52.698;6.314;2022-11-15T19:16:44;5.55;;;3.00;;
57828;SDS011;43657;52.698;6.314;2022-11-15T19:19:15;12.15;;;4.00;;
57828;SDS011;43657;52.698;6.314;2022-11-15T19:21:47;4.78;;;3.22;;
57828;SDS011;43657;52.698;6.314;2022-11-15T19:24:19;3.97;;;3.38;;
57828;SDS011;43657;52.698;6.314;2022-11-15T19:27:03;6.00;;;3.42;;
57828;SDS011;43657;52.698;6.314;2022-11-15T19:29:41;5.20;;;3.50;;
57828;SDS011;43657;52.698;6.314;2022-11-15T19:32:29;3.53;;;2.65;;
57828;SDS011;43657;52.698;6.314;2022-11-15T19:35:28;5.18;;;2.75;;
57828;SDS011;43657;52.698;6.314;2022-11-15T19:38:02;5.57;;;3.28;;
57828;SDS011;43657;52.698;6.314;2022-11-15T19:40:36;4.60;;;3.70;;
57828;SDS011;43657;52.698;6.314;2022-11-15T19:43:05;6.95;;;3.58;;
57828;SDS011;43657;52.698;6.314;2022-11-15T19:45:51;6.57;;;3.78;;
57828;SDS011;43657;52.698;6.314;2022-11-15T19:48:18;3.50;;;2.70;;
57828;SDS011;43657;52.698;6.314;2022-11-15T19:50:53;4.57;;;3.25;;